createdAt,value
2018-01-19T00:01:28.239Z,6.37
2018-01-19T00:03:56.107Z,6.10
2018-01-19T00:06:23.967Z,5.80
2018-01-19T00:08:51.842Z,6.90
2018-01-19T00:11:19.681Z,6.50
2018-01-19T00:13:47.599Z,6.43
2018-01-19T00:16:15.511Z,7.50
2018-01-19T00:18:43.340Z,6.33
2018-01-19T00:21:11.212Z,6.53
2018-01-19T00:23:39.043Z,6.40
2018-01-19T00:26:06.943Z,6.80
2018-01-19T00:28:34.838Z,6.33
2018-01-19T00:31:02.714Z,6.73
2018-01-19T00:33:30.561Z,6.20
2018-01-19T00:35:58.488Z,8.40
2018-01-19T00:38:26.320Z,7.77
2018-01-19T00:40:54.153Z,7.30
2018-01-19T00:43:22.098Z,7.30
2018-01-19T00:45:49.948Z,6.53
2018-01-19T00:48:17.780Z,7.30
2018-01-19T00:50:45.650Z,7.10
2018-01-19T00:53:13.479Z,7.13
2018-01-19T00:55:41.313Z,6.60
2018-01-19T00:58:09.227Z,12.27
2018-01-19T01:00:37.064Z,8.90
2018-01-19T01:03:04.935Z,8.03
2018-01-19T01:05:32.810Z,9.67
2018-01-19T01:08:00.678Z,10.23
2018-01-19T01:10:28.529Z,10.00
2018-01-19T01:12:56.402Z,10.70
2018-01-19T01:15:24.277Z,7.40
2018-01-19T01:17:52.129Z,8.87
2018-01-19T01:20:20.002Z,7.60
2018-01-19T01:22:47.844Z,7.20
2018-01-19T01:25:15.678Z,7.47
2018-01-19T01:27:43.547Z,8.07
2018-01-19T01:30:11.387Z,8.70
2018-01-19T01:32:39.244Z,8.50
2018-01-19T01:35:07.131Z,7.30
2018-01-19T01:37:34.966Z,8.33
2018-01-19T01:40:02.811Z,8.60
2018-01-19T01:42:30.667Z,7.87
2018-01-19T01:44:58.493Z,7.90
2018-01-19T01:47:26.360Z,7.33
2018-01-19T01:49:54.223Z,7.97
2018-01-19T01:52:22.068Z,7.40
2018-01-19T01:54:49.911Z,8.27
2018-01-19T01:57:17.791Z,8.67
2018-01-19T01:59:45.699Z,8.03
2018-01-19T02:02:13.553Z,7.90
2018-01-19T02:04:41.414Z,7.40
2018-01-19T02:07:09.265Z,7.60
2018-01-19T02:09:37.163Z,7.73
2018-01-19T02:12:05.031Z,8.13
2018-01-19T02:14:32.859Z,7.70
2018-01-19T02:17:00.737Z,7.00
2018-01-19T02:19:28.599Z,8.27
2018-01-19T02:21:56.827Z,7.60
2018-01-19T02:24:24.678Z,7.40
2018-01-19T02:26:52.535Z,5.80
2018-01-19T02:29:20.374Z,5.80
2018-01-19T02:31:48.222Z,5.90
2018-01-19T02:34:16.079Z,6.83
2018-01-19T02:36:43.902Z,6.13
2018-01-19T02:39:11.754Z,5.47
2018-01-19T02:41:39.614Z,5.63
2018-01-19T02:44:07.447Z,4.63
2018-01-19T02:46:35.274Z,4.87
2018-01-19T02:49:03.151Z,5.50
2018-01-19T02:51:30.990Z,5.43
2018-01-19T02:53:58.820Z,4.53
2018-01-19T02:56:26.677Z,5.17
2018-01-19T02:58:54.607Z,4.77
2018-01-19T03:01:22.439Z,4.60
2018-01-19T03:03:50.305Z,5.10
2018-01-19T03:06:18.135Z,5.17
2018-01-19T03:08:45.964Z,5.80
2018-01-19T03:11:13.846Z,6.50
2018-01-19T03:13:41.703Z,5.20
2018-01-19T03:16:09.536Z,4.80
2018-01-19T03:18:37.462Z,5.80
2018-01-19T03:21:05.320Z,5.30
2018-01-19T03:23:33.155Z,5.73
2018-01-19T03:26:01.010Z,4.83
2018-01-19T03:28:28.842Z,4.90
2018-01-19T03:30:56.679Z,4.43
2018-01-19T03:33:24.538Z,5.70
2018-01-19T03:35:52.375Z,5.20
2018-01-19T03:38:20.220Z,5.77
2018-01-19T03:40:48.083Z,5.60
2018-01-19T03:43:15.927Z,5.90
2018-01-19T03:45:43.750Z,5.70
2018-01-19T03:48:11.619Z,5.50
2018-01-19T03:50:39.451Z,4.97
2018-01-19T03:53:07.295Z,4.63
2018-01-19T03:55:35.172Z,4.60
2018-01-19T03:58:03.023Z,4.07
2018-01-19T04:00:30.851Z,4.07
2018-01-19T04:02:58.703Z,3.60
2018-01-19T04:05:26.558Z,4.50
2018-01-19T04:07:54.402Z,3.60
2018-01-19T04:10:22.300Z,4.17
2018-01-19T04:12:50.135Z,4.00
2018-01-19T04:15:17.966Z,4.27
2018-01-19T04:17:45.814Z,4.30
2018-01-19T04:20:13.702Z,5.40
2018-01-19T04:22:41.539Z,4.53
2018-01-19T04:25:09.539Z,3.70
2018-01-19T04:27:37.380Z,3.97
2018-01-19T04:30:05.220Z,4.40
2018-01-19T04:32:33.087Z,4.47
2018-01-19T04:35:00.920Z,4.70
2018-01-19T04:37:28.795Z,5.03
2018-01-19T04:39:56.815Z,4.27
2018-01-19T04:42:24.635Z,4.37
2018-01-19T04:44:52.489Z,5.00
2018-01-19T04:47:20.504Z,4.10
2018-01-19T04:49:48.335Z,4.80
2018-01-19T04:52:16.176Z,4.23
2018-01-19T04:54:44.037Z,4.93
2018-01-19T04:57:11.891Z,4.63
2018-01-19T04:59:39.736Z,4.80
2018-01-19T05:02:07.615Z,4.47
2018-01-19T05:04:35.448Z,4.40
2018-01-19T05:07:03.323Z,4.77
2018-01-19T05:09:31.167Z,4.50
2018-01-19T05:11:58.996Z,4.43
2018-01-19T05:14:26.828Z,4.57
2018-01-19T05:16:54.688Z,4.80
2018-01-19T05:19:22.516Z,4.90
2018-01-19T05:21:50.410Z,4.80
2018-01-19T05:24:18.591Z,5.37
2018-01-19T05:26:46.439Z,5.07
2018-01-19T05:29:14.280Z,4.90
2018-01-19T05:31:42.133Z,4.50
2018-01-19T05:34:09.990Z,4.83
2018-01-19T05:36:37.829Z,4.60
2018-01-19T05:39:05.699Z,4.20
2018-01-19T05:41:34.365Z,3.77
2018-01-19T05:44:02.223Z,4.67
2018-01-19T05:46:30.075Z,4.60
2018-01-19T05:48:57.912Z,4.80
2018-01-19T05:51:25.743Z,4.20
2018-01-19T05:53:53.920Z,3.80
2018-01-19T05:56:21.848Z,4.30
2018-01-19T05:58:49.679Z,4.40
2018-01-19T06:01:17.569Z,4.40
2018-01-19T06:03:45.446Z,4.30
2018-01-19T06:06:13.291Z,4.53
2018-01-19T06:08:41.185Z,4.47
2018-01-19T06:11:09.028Z,4.50
2018-01-19T06:13:36.868Z,4.17
2018-01-19T06:16:04.753Z,4.70
2018-01-19T06:18:32.591Z,5.13
2018-01-19T06:21:00.449Z,5.00
2018-01-19T06:23:28.337Z,5.57
2018-01-19T06:25:56.168Z,5.17
2018-01-19T06:28:24.000Z,4.60
2018-01-19T06:30:51.872Z,5.10
2018-01-19T06:33:19.700Z,4.43
2018-01-19T06:35:47.538Z,4.70
2018-01-19T06:38:15.408Z,4.87
2018-01-19T06:40:43.298Z,5.10
2018-01-19T06:43:11.469Z,4.90
2018-01-19T06:45:39.347Z,5.37
2018-01-19T06:48:07.181Z,5.00
2018-01-19T06:50:35.032Z,5.40
2018-01-19T06:53:02.916Z,6.10
2018-01-19T06:55:30.751Z,6.10
2018-01-19T06:57:58.574Z,5.60
2018-01-19T07:00:26.423Z,6.17
2018-01-19T07:02:54.280Z,6.13
2018-01-19T07:05:22.128Z,5.43
2018-01-19T07:07:49.983Z,6.20
2018-01-19T07:10:17.811Z,6.27
2018-01-19T07:12:45.643Z,5.77
2018-01-19T07:15:13.503Z,6.30
2018-01-19T07:17:41.344Z,6.20
2018-01-19T07:20:09.182Z,6.90
2018-01-19T07:22:37.056Z,6.50
2018-01-19T07:25:04.940Z,6.33
2018-01-19T07:27:32.773Z,5.77
2018-01-19T07:30:00.636Z,6.20
2018-01-19T07:32:28.464Z,5.60
2018-01-19T07:34:56.299Z,6.43
2018-01-19T07:37:24.160Z,6.77
2018-01-19T07:39:52.029Z,6.27
2018-01-19T07:42:19.877Z,5.70
2018-01-19T07:44:47.804Z,5.90
2018-01-19T07:47:15.649Z,6.40
2018-01-19T07:49:43.536Z,7.17
2018-01-19T07:52:11.451Z,6.70
2018-01-19T07:54:39.294Z,6.77
2018-01-19T07:57:07.140Z,7.03
2018-01-19T07:59:35.009Z,6.07
2018-01-19T08:02:02.867Z,7.03
2018-01-19T08:04:30.708Z,7.30
2018-01-19T08:06:58.611Z,7.30
2018-01-19T08:09:26.440Z,6.50
2018-01-19T08:11:54.275Z,7.23
2018-01-19T08:14:22.140Z,7.27
2018-01-19T08:16:50.043Z,7.33
2018-01-19T08:19:17.885Z,7.87
2018-01-19T08:21:45.752Z,7.57
2018-01-19T08:24:13.593Z,6.70
2018-01-19T08:26:41.536Z,6.70
2018-01-19T08:29:09.400Z,6.10
2018-01-19T08:31:37.244Z,6.13
2018-01-19T08:34:05.097Z,7.10
2018-01-19T08:36:33.120Z,6.83
2018-01-19T08:39:00.969Z,13.43
2018-01-19T08:41:28.801Z,12.93
2018-01-19T08:43:56.687Z,18.33
2018-01-19T08:46:24.580Z,10.73
2018-01-19T08:48:52.419Z,8.67
2018-01-19T08:51:20.302Z,8.57
2018-01-19T08:53:48.220Z,17.30
2018-01-19T08:56:16.068Z,7.40
2018-01-19T08:58:43.941Z,9.33
2018-01-19T09:01:11.836Z,10.00
2018-01-19T09:03:39.712Z,8.10
2018-01-19T09:06:07.567Z,15.83
2018-01-19T09:08:35.386Z,8.83
2018-01-19T09:11:03.222Z,9.40
2018-01-19T09:13:31.092Z,7.00
2018-01-19T09:15:59.009Z,8.37
2018-01-19T09:18:26.869Z,6.67
2018-01-19T09:20:54.728Z,7.53
2018-01-19T09:23:22.574Z,7.13
2018-01-19T09:25:50.436Z,7.70
2018-01-19T09:28:18.356Z,7.43
2018-01-19T09:30:46.190Z,7.73
2018-01-19T09:33:14.031Z,7.20
2018-01-19T09:35:41.869Z,7.03
2018-01-19T09:38:09.710Z,7.80
2018-01-19T09:40:37.648Z,8.37
2018-01-19T09:43:05.528Z,7.37
2018-01-19T09:45:33.359Z,7.40
2018-01-19T09:48:01.197Z,7.17
2018-01-19T09:50:29.095Z,7.50
2018-01-19T09:52:56.931Z,7.87
2018-01-19T09:55:24.784Z,7.30
2018-01-19T09:57:52.740Z,7.47
2018-01-19T10:00:20.624Z,7.90
2018-01-19T10:02:48.459Z,6.90
2018-01-19T10:05:16.895Z,7.27
2018-01-19T10:07:44.752Z,7.63
2018-01-19T10:10:12.592Z,7.33
2018-01-19T10:12:40.471Z,7.10
2018-01-19T10:15:08.298Z,7.77
2018-01-19T10:17:36.143Z,7.00
2018-01-19T10:20:04.036Z,7.70
2018-01-19T10:22:31.888Z,7.70
2018-01-19T10:24:59.726Z,7.73
2018-01-19T10:27:27.597Z,7.90
2018-01-19T10:29:55.460Z,8.20
2018-01-19T10:32:23.309Z,9.33
2018-01-19T10:34:51.183Z,9.33
2018-01-19T10:37:19.039Z,8.90
2018-01-19T10:39:46.919Z,8.67
2018-01-19T10:42:14.792Z,7.70
2018-01-19T10:44:42.620Z,9.70
2018-01-19T10:47:10.460Z,9.33
2018-01-19T10:49:38.328Z,8.80
2018-01-19T10:52:06.164Z,8.73
2018-01-19T10:54:34.036Z,8.23
2018-01-19T10:57:01.902Z,9.10
2018-01-19T10:59:29.731Z,8.67
2018-01-19T11:01:57.592Z,8.30
2018-01-19T11:04:25.484Z,8.33
2018-01-19T11:06:53.312Z,7.90
2018-01-19T11:09:21.169Z,9.37
2018-01-19T11:11:49.044Z,8.23
2018-01-19T11:14:16.880Z,8.90
2018-01-19T11:16:44.723Z,11.20
2018-01-19T11:19:12.608Z,9.57
2018-01-19T11:21:40.529Z,9.53
2018-01-19T11:24:08.376Z,10.43
2018-01-19T11:26:36.329Z,9.10
2018-01-19T11:29:04.192Z,9.77
2018-01-19T11:31:32.088Z,8.97
2018-01-19T11:34:03.753Z,9.60
2018-01-19T11:36:31.636Z,12.17
2018-01-19T11:38:59.459Z,9.77
2018-01-19T11:41:27.323Z,9.87
2018-01-19T11:43:55.174Z,9.80
2018-01-19T11:46:23.037Z,9.63
2018-01-19T11:48:50.897Z,9.70
2018-01-19T11:51:18.777Z,11.53
2018-01-19T11:53:46.690Z,11.07
2018-01-19T11:56:14.591Z,12.90
2018-01-19T11:58:42.431Z,12.77
2018-01-19T12:01:10.302Z,13.23
2018-01-19T12:03:38.216Z,11.23
2018-01-19T12:06:06.126Z,12.00
2018-01-19T12:08:33.964Z,10.73
2018-01-19T12:11:01.853Z,12.43
2018-01-19T12:13:29.706Z,11.80
2018-01-19T12:15:57.714Z,13.03
2018-01-19T12:18:25.596Z,14.17
2018-01-19T12:20:53.511Z,13.03
2018-01-19T12:23:21.358Z,12.17
2018-01-19T12:25:49.237Z,14.30
2018-01-19T12:28:17.126Z,12.07
2018-01-19T12:30:44.962Z,12.40
2018-01-19T12:33:12.876Z,14.17
2018-01-19T12:35:40.737Z,18.30
2018-01-19T12:38:08.584Z,14.03
2018-01-19T12:40:36.444Z,13.83
2018-01-19T12:43:04.267Z,11.83
2018-01-19T12:45:32.101Z,11.40
2018-01-19T12:47:59.973Z,10.03
2018-01-19T12:50:27.826Z,11.80
2018-01-19T12:52:55.669Z,13.03
2018-01-19T12:55:23.852Z,10.70
2018-01-19T12:57:51.691Z,10.73
2018-01-19T13:00:19.571Z,10.47
2018-01-19T13:02:47.443Z,12.40
2018-01-19T13:05:15.417Z,11.10
2018-01-19T13:07:43.263Z,13.00
2018-01-19T13:10:11.155Z,12.70
2018-01-19T13:12:39.000Z,12.30
2018-01-19T13:15:06.959Z,12.93
2018-01-19T13:17:35.643Z,13.00
2018-01-19T13:20:03.488Z,12.90
2018-01-19T13:22:31.354Z,13.57
2018-01-19T13:25:00.267Z,14.10
2018-01-19T13:27:28.124Z,14.60
2018-01-19T13:29:55.972Z,16.33
2018-01-19T13:32:23.939Z,13.00
2018-01-19T13:34:51.838Z,14.23
2018-01-19T13:37:19.694Z,15.40
2018-01-19T13:39:47.595Z,13.00
2018-01-19T13:42:15.521Z,12.70
2018-01-19T13:44:43.380Z,12.80
2018-01-19T13:47:11.247Z,12.67
2018-01-19T13:49:39.208Z,13.47
2018-01-19T13:52:07.043Z,13.53
2018-01-19T13:54:34.914Z,13.03
2018-01-19T13:57:02.785Z,12.87
2018-01-19T13:59:30.644Z,14.80
2018-01-19T14:01:58.680Z,14.60
2018-01-19T14:04:26.520Z,15.83
2018-01-19T14:06:54.389Z,20.40
2018-01-19T14:09:22.296Z,12.40
2018-01-19T14:11:50.221Z,13.40
2018-01-19T14:14:18.089Z,12.73
2018-01-19T14:16:45.962Z,13.37
2018-01-19T14:19:13.942Z,14.33
2018-01-19T14:21:41.763Z,15.10
2018-01-19T14:24:09.647Z,12.50
2018-01-19T14:26:37.637Z,13.83
2018-01-19T14:29:05.591Z,13.37
2018-01-19T14:31:33.471Z,13.40
2018-01-19T14:34:01.331Z,14.30
2018-01-19T14:36:29.205Z,13.80
2018-01-19T14:38:57.085Z,12.70
2018-01-19T14:41:24.916Z,12.70
2018-01-19T14:43:52.751Z,14.70
2018-01-19T14:46:20.648Z,14.47
2018-01-19T14:48:48.500Z,14.43
2018-01-19T14:51:16.366Z,12.40
2018-01-19T14:53:44.252Z,16.40
2018-01-19T14:56:12.108Z,12.50
2018-01-19T14:58:39.972Z,12.53
2018-01-19T15:01:07.884Z,12.17
2018-01-19T15:03:35.737Z,11.20
2018-01-19T15:06:03.596Z,14.77
2018-01-19T15:08:31.556Z,9.90
2018-01-19T15:10:59.403Z,12.67
2018-01-19T15:13:27.246Z,12.70
2018-01-19T15:15:55.121Z,10.70
2018-01-19T15:18:23.003Z,10.33
2018-01-19T15:20:50.895Z,9.20
2018-01-19T15:23:18.781Z,15.20
2018-01-19T15:25:46.633Z,12.80
2018-01-19T15:28:14.489Z,10.40
2018-01-19T15:30:42.370Z,10.17
2018-01-19T15:33:10.227Z,8.93
2018-01-19T15:35:38.067Z,9.90
2018-01-19T15:38:05.997Z,11.77
2018-01-19T15:40:33.852Z,21.33
2018-01-19T15:43:01.720Z,10.00
2018-01-19T15:45:29.571Z,14.80
2018-01-19T15:47:57.445Z,9.60
2018-01-19T15:50:25.328Z,10.23
2018-01-19T15:52:53.328Z,12.10
2018-01-19T15:55:21.200Z,9.90
2018-01-19T15:57:49.068Z,17.77
2018-01-19T16:00:16.993Z,12.00
2018-01-19T16:02:44.896Z,10.33
2018-01-19T16:05:12.801Z,11.00
2018-01-19T16:07:40.696Z,21.03
2018-01-19T16:10:08.531Z,11.00
2018-01-19T16:12:36.402Z,8.77
2018-01-19T16:15:04.672Z,15.17
2018-01-19T16:17:32.508Z,9.37
2018-01-19T16:20:00.352Z,10.50
2018-01-19T16:22:28.348Z,13.47
2018-01-19T16:24:56.175Z,11.50
2018-01-19T16:27:24.014Z,9.90
2018-01-19T16:29:51.897Z,9.13
2018-01-19T16:32:19.744Z,8.97
2018-01-19T16:34:47.782Z,8.20
2018-01-19T16:37:15.684Z,8.87
2018-01-19T16:39:43.629Z,8.30
2018-01-19T16:42:11.519Z,9.30
2018-01-19T16:44:39.430Z,7.10
2018-01-19T16:47:07.302Z,7.47
2018-01-19T16:49:35.149Z,7.60
2018-01-19T16:52:03.152Z,6.70
2018-01-19T16:54:31.054Z,11.10
2018-01-19T16:56:58.893Z,11.80
2018-01-19T16:59:26.760Z,10.20
2018-01-19T17:01:54.605Z,8.50
2018-01-19T17:04:22.468Z,12.80
2018-01-19T17:06:50.322Z,9.80
2018-01-19T17:09:18.165Z,11.33
2018-01-19T17:11:46.008Z,9.13
2018-01-19T17:14:13.891Z,10.40
2018-01-19T17:16:41.797Z,10.80
2018-01-19T17:19:09.631Z,9.60
2018-01-19T17:21:37.502Z,11.50
2018-01-19T17:24:05.336Z,10.33
2018-01-19T17:26:33.209Z,11.00
2018-01-19T17:29:01.080Z,9.87
2018-01-19T17:31:28.936Z,12.50
2018-01-19T17:36:29.258Z,10.10
2018-01-19T17:38:57.117Z,9.47
2018-01-19T17:41:25.068Z,11.93
2018-01-19T17:43:52.972Z,13.00
2018-01-19T17:46:20.826Z,8.80
2018-01-19T17:48:48.677Z,10.00
2018-01-19T17:51:16.565Z,9.87
2018-01-19T17:53:44.413Z,11.03
2018-01-19T17:56:12.282Z,10.80
2018-01-19T17:58:40.272Z,8.70
2018-01-19T18:01:08.225Z,9.93
2018-01-19T18:03:36.110Z,12.93
2018-01-19T18:06:04.088Z,13.07
2018-01-19T18:08:32.009Z,16.50
2018-01-19T18:10:59.861Z,14.70
2018-01-19T18:13:27.805Z,12.47
2018-01-19T18:15:55.673Z,16.17
2018-01-19T18:18:23.560Z,13.33
2018-01-19T18:20:51.453Z,14.40
2018-01-19T18:23:19.304Z,8.90
2018-01-19T18:25:47.180Z,9.10
2018-01-19T18:28:15.112Z,10.00
2018-01-19T18:30:43.047Z,10.87
2018-01-19T18:33:10.916Z,12.37
2018-01-19T18:35:38.831Z,11.10
2018-01-19T18:38:06.728Z,10.93
2018-01-19T18:40:34.576Z,11.37
2018-01-19T18:43:02.528Z,11.83
2018-01-19T18:45:30.383Z,11.50
2018-01-19T18:47:58.276Z,12.30
2018-01-19T18:50:26.255Z,12.60
2018-01-19T18:52:54.217Z,13.50
2018-01-19T18:55:22.127Z,12.73
2018-01-19T18:57:50.028Z,12.33
2018-01-19T19:00:17.953Z,12.70
2018-01-19T19:02:45.823Z,11.50
2018-01-19T19:05:13.706Z,11.33
2018-01-19T19:07:41.627Z,11.13
2018-01-19T19:10:09.536Z,14.27
2018-01-19T19:12:37.508Z,12.30
2018-01-19T19:15:05.398Z,13.40
2018-01-19T19:17:33.269Z,13.60
2018-01-19T19:20:01.164Z,14.73
2018-01-19T19:22:29.641Z,13.70
2018-01-19T19:24:57.474Z,13.37
2018-01-19T19:27:25.404Z,13.03
2018-01-19T19:29:53.296Z,14.30
2018-01-19T19:32:21.176Z,14.90
2018-01-19T19:34:49.060Z,15.00
2018-01-19T19:37:16.986Z,14.37
2018-01-19T19:39:44.937Z,14.67
2018-01-19T19:42:12.896Z,18.77
2018-01-19T19:44:40.947Z,16.80
2018-01-19T19:47:08.897Z,14.67
2018-01-19T19:49:36.824Z,17.07
2018-01-19T19:52:04.689Z,15.60
2018-01-19T19:54:32.563Z,15.03
2018-01-19T19:57:00.456Z,21.40
2018-01-19T19:59:28.310Z,28.27
2018-01-19T20:01:56.605Z,22.00
2018-01-19T20:04:25.578Z,18.63
2018-01-19T20:06:53.468Z,16.93
2018-01-19T20:09:21.329Z,17.07
2018-01-19T20:11:50.126Z,16.53
2018-01-19T20:16:52.640Z,17.67
2018-01-19T20:19:20.516Z,16.60
2018-01-19T20:21:48.372Z,20.17
2018-01-19T20:24:16.269Z,18.57
2018-01-19T20:26:44.223Z,20.97
2018-01-19T20:31:48.437Z,19.53
2018-01-19T20:34:16.287Z,20.67
2018-01-19T20:36:44.135Z,18.60
2018-01-19T20:39:11.991Z,19.97
2018-01-19T20:41:39.870Z,20.13
2018-01-19T20:44:07.710Z,20.20
2018-01-19T20:46:35.727Z,21.53
2018-01-19T20:49:03.632Z,21.67
2018-01-19T20:51:31.483Z,18.83
2018-01-19T20:53:59.320Z,19.80
2018-01-19T20:56:27.200Z,20.13
2018-01-19T20:58:55.214Z,20.67
2018-01-19T21:01:23.067Z,17.70
2018-01-19T21:03:50.991Z,20.67
2018-01-19T21:06:18.849Z,19.37
2018-01-19T21:08:46.698Z,19.40
2018-01-19T21:11:14.568Z,21.50
2018-01-19T21:13:42.434Z,18.80
2018-01-19T21:16:10.718Z,21.23
2018-01-19T21:18:38.703Z,21.60
2018-01-19T21:21:06.570Z,20.60
2018-01-19T21:23:34.754Z,19.37
2018-01-19T21:26:02.767Z,21.80
2018-01-19T21:28:30.709Z,25.03
2018-01-19T21:30:58.556Z,20.17
2018-01-19T21:33:26.468Z,20.30
2018-01-19T21:35:54.376Z,20.87
2018-01-19T21:38:22.669Z,19.97
2018-01-19T21:40:50.564Z,19.20
2018-01-19T21:43:18.413Z,27.83
2018-01-19T21:45:46.295Z,23.50
2018-01-19T21:48:14.216Z,20.90
2018-01-19T21:50:42.091Z,19.73
2018-01-19T21:53:09.919Z,18.73
2018-01-19T21:55:37.788Z,19.20
2018-01-19T21:58:05.645Z,19.87
2018-01-19T22:00:33.496Z,20.80
2018-01-19T22:03:01.372Z,19.90
2018-01-19T22:05:29.214Z,19.53
2018-01-19T22:07:57.089Z,18.00
2018-01-19T22:10:24.984Z,18.60
2018-01-19T22:12:52.859Z,16.77
2018-01-19T22:15:20.701Z,17.03
2018-01-19T22:17:48.603Z,18.53
2018-01-19T22:20:16.434Z,18.23
2018-01-19T22:22:44.387Z,18.93
2018-01-19T22:25:12.260Z,19.90
2018-01-19T22:27:40.121Z,20.07
2018-01-19T22:30:08.036Z,17.80
2018-01-19T22:32:35.953Z,18.60
2018-01-19T22:35:03.968Z,20.50
2018-01-19T22:37:31.820Z,18.67
2018-01-19T22:39:59.863Z,19.30
2018-01-19T22:42:27.795Z,19.97
2018-01-19T22:44:55.670Z,19.27
2018-01-19T22:47:23.541Z,17.90
2018-01-19T22:49:51.429Z,19.90
2018-01-19T22:52:19.395Z,19.20
2018-01-19T22:54:47.301Z,21.00
2018-01-19T22:57:15.389Z,18.10
2018-01-19T22:59:43.252Z,17.80
2018-01-19T23:02:11.134Z,18.37
2018-01-19T23:04:39.020Z,18.60
2018-01-19T23:07:06.877Z,18.13
2018-01-19T23:09:34.858Z,19.17
2018-01-19T23:12:02.768Z,20.83
2018-01-19T23:14:30.612Z,19.07
2018-01-19T23:16:58.533Z,18.17
2018-01-19T23:19:26.663Z,18.20
2018-01-19T23:21:54.583Z,19.20
2018-01-19T23:24:22.468Z,18.20
2018-01-19T23:26:50.407Z,18.30
2018-01-19T23:29:18.270Z,18.47
2018-01-19T23:31:46.180Z,19.57
2018-01-19T23:34:14.056Z,17.60
2018-01-19T23:36:41.904Z,16.47
2018-01-19T23:39:09.943Z,20.07
2018-01-19T23:41:37.813Z,20.70
2018-01-19T23:44:05.785Z,19.63
2018-01-19T23:46:33.701Z,20.00
2018-01-19T23:49:01.552Z,18.10
2018-01-19T23:51:29.447Z,16.60
2018-01-19T23:53:57.331Z,16.67
2018-01-19T23:56:25.181Z,16.87
2018-01-19T23:58:53.084Z,18.40
